Terminal Aerodrome Forecast
Issued by NWS Melbourne, FL

Home | Current Version | Previous Version | Text Only | Print | Product List | Glossary On
Versions: 1 2 3 4 5 6 7 8 9 10 11 12 13 14 15 16 17 18 19 20
000
FTUS42 KMLB 201125
TAFMLB
TAF
KMLB 201125Z 2012/2112 00000KT P6SM SKC
     FM201400 VRB03KT P6SM SCT025
     FM201700 12007KT P6SM VCTS SCT035CB
      TEMPO 2018/2021 3SM TSRA BKN030CB
     FM202300 13008KT P6SM VCSH FEW040 BKN120 OVC250=

USA.gov is the U.S. government's official web portal to all federal, state and local government web resources and services.